sensor_id;sensor_type;location;lat;lon;timestamp;pressure;altitude;pressure_sealevel;temperature;humidity
14273;BME280;7220;49.450;11.052;2023-10-31T00:03:22;96432.38;;;13.54;100.00
14273;BME280;7220;49.450;11.052;2023-10-31T00:07:23;96446.25;;;13.58;100.00
14273;BME280;7220;49.450;11.052;2023-10-31T00:11:23;96461.16;;;13.51;100.00
14273;BME280;7220;49.450;11.052;2023-10-31T00:15:23;96467.47;;;13.50;100.00
14273;BME280;7220;49.450;11.052;2023-10-31T00:19:24;96464.22;;;13.56;100.00
14273;BME280;7220;49.450;11.052;2023-10-31T00:23:25;96461.28;;;13.59;100.00
14273;BME280;7220;49.450;11.052;2023-10-31T00:27:25;96459.06;;;13.45;100.00
14273;BME280;7220;49.450;11.052;2023-10-31T00:31:25;96466.50;;;13.51;100.00
14273;BME280;7220;49.450;11.052;2023-10-31T00:35:26;96466.06;;;13.55;100.00
14273;BME280;7220;49.450;11.052;2023-10-31T00:39:26;96477.19;;;13.51;100.00
14273;BME280;7220;49.450;11.052;2023-10-31T00:43:26;96475.34;;;13.51;100.00
14273;BME280;7220;49.450;11.052;2023-10-31T00:47:27;96479.00;;;13.60;100.00
14273;BME280;7220;49.450;11.052;2023-10-31T00:51:27;96484.31;;;13.60;100.00
14273;BME280;7220;49.450;11.052;2023-10-31T00:55:27;96494.84;;;13.62;100.00
14273;BME280;7220;49.450;11.052;2023-10-31T00:59:28;96486.44;;;13.56;100.00
14273;BME280;7220;49.450;11.052;2023-10-31T01:03:28;96479.00;;;13.60;100.00
14273;BME280;7220;49.450;11.052;2023-10-31T01:07:29;96471.44;;;13.46;100.00
14273;BME280;7220;49.450;11.052;2023-10-31T01:11:29;96479.25;;;13.57;100.00
14273;BME280;7220;49.450;11.052;2023-10-31T01:15:29;96481.53;;;13.52;100.00
14273;BME280;7220;49.450;11.052;2023-10-31T01:19:29;96487.72;;;13.43;100.00
14273;BME280;7220;49.450;11.052;2023-10-31T01:23:30;96499.50;;;13.50;100.00
14273;BME280;7220;49.450;11.052;2023-10-31T01:27:30;96503.88;;;13.41;100.00
14273;BME280;7220;49.450;11.052;2023-10-31T01:31:30;96503.28;;;13.37;100.00
14273;BME280;7220;49.450;11.052;2023-10-31T01:35:32;96472.25;;;13.17;100.00
14273;BME280;7220;49.450;11.052;2023-10-31T01:39:36;96491.94;;;13.25;100.00
14273;BME280;7220;49.450;11.052;2023-10-31T01:43:37;96481.25;;;13.16;100.00
14273;BME280;7220;49.450;11.052;2023-10-31T01:47:37;96492.91;;;13.24;100.00
14273;BME280;7220;49.450;11.052;2023-10-31T01:51:38;96485.72;;;13.25;100.00
14273;BME280;7220;49.450;11.052;2023-10-31T01:55:38;96487.44;;;13.16;100.00
14273;BME280;7220;49.450;11.052;2023-10-31T01:59:39;96489.94;;;13.18;100.00
14273;BME280;7220;49.450;11.052;2023-10-31T02:03:39;96512.13;;;13.18;100.00
14273;BME280;7220;49.450;11.052;2023-10-31T02:07:40;96517.44;;;13.18;100.00
14273;BME280;7220;49.450;11.052;2023-10-31T02:11:44;96531.38;;;13.22;100.00
14273;BME280;7220;49.450;11.052;2023-10-31T02:15:45;96533.75;;;13.15;100.00
14273;BME280;7220;49.450;11.052;2023-10-31T02:19:45;96520.84;;;13.20;100.00
14273;BME280;7220;49.450;11.052;2023-10-31T02:24:15;96533.19;;;13.12;100.00
14273;BME280;7220;49.450;11.052;2023-10-31T02:28:15;96531.09;;;13.05;100.00
14273;BME280;7220;49.450;11.052;2023-10-31T02:32:16;96538.94;;;12.97;100.00
14273;BME280;7220;49.450;11.052;2023-10-31T02:36:16;96551.41;;;13.06;100.00
14273;BME280;7220;49.450;11.052;2023-10-31T02:40:17;96559.25;;;12.98;100.00
14273;BME280;7220;49.450;11.052;2023-10-31T02:44:17;96571.78;;;13.07;100.00
14273;BME280;7220;49.450;11.052;2023-10-31T02:48:17;96565.97;;;12.83;100.00
14273;BME280;7220;49.450;11.052;2023-10-31T02:52:18;96585.91;;;12.88;100.00
14273;BME280;7220;49.450;11.052;2023-10-31T02:56:19;96595.03;;;12.86;100.00
14273;BME280;7220;49.450;11.052;2023-10-31T03:00:19;96594.59;;;12.81;100.00
14273;BME280;7220;49.450;11.052;2023-10-31T03:04:19;96610.78;;;12.89;100.00
14273;BME280;7220;49.450;11.052;2023-10-31T03:08:20;96608.22;;;12.87;100.00
14273;BME280;7220;49.450;11.052;2023-10-31T03:12:20;96614.09;;;12.81;100.00
14273;BME280;7220;49.450;11.052;2023-10-31T03:16:21;96609.72;;;12.70;100.00
14273;BME280;7220;49.450;11.052;2023-10-31T03:20:21;96619.56;;;12.80;100.00
14273;BME280;7220;49.450;11.052;2023-10-31T03:24:21;96630.78;;;12.73;100.00
14273;BME280;7220;49.450;11.052;2023-10-31T03:28:22;96619.56;;;12.70;100.00
14273;BME280;7220;49.450;11.052;2023-10-31T03:32:25;96624.28;;;12.66;100.00
14273;BME280;7220;49.450;11.052;2023-10-31T03:36:25;96622.50;;;12.45;100.00
14273;BME280;7220;49.450;11.052;2023-10-31T03:40:25;96627.00;;;12.45;100.00
14273;BME280;7220;49.450;11.052;2023-10-31T03:44:26;96639.94;;;12.50;100.00
14273;BME280;7220;49.450;11.052;2023-10-31T03:48:26;96651.97;;;12.44;100.00
14273;BME280;7220;49.450;11.052;2023-10-31T03:52:27;96632.03;;;12.38;100.00
14273;BME280;7220;49.450;11.052;2023-10-31T03:56:27;96625.38;;;12.33;100.00
14273;BME280;7220;49.450;11.052;2023-10-31T04:00:28;96639.44;;;12.35;100.00
14273;BME280;7220;49.450;11.052;2023-10-31T04:04:28;96649.72;;;12.18;100.00
14273;BME280;7220;49.450;11.052;2023-10-31T04:08:28;96662.25;;;12.27;100.00
14273;BME280;7220;49.450;11.052;2023-10-31T04:12:29;96672.50;;;12.32;100.00
14273;BME280;7220;49.450;11.052;2023-10-31T04:16:29;96660.94;;;12.22;100.00
14273;BME280;7220;49.450;11.052;2023-10-31T04:20:29;96679.13;;;12.17;100.00
14273;BME280;7220;49.450;11.052;2023-10-31T04:24:30;96685.28;;;12.17;100.00
14273;BME280;7220;49.450;11.052;2023-10-31T04:28:31;96667.03;;;12.12;100.00
14273;BME280;7220;49.450;11.052;2023-10-31T04:32:31;96663.75;;;11.99;100.00
14273;BME280;7220;49.450;11.052;2023-10-31T04:36:31;96675.22;;;11.99;100.00
14273;BME280;7220;49.450;11.052;2023-10-31T04:40:32;96689.84;;;11.94;100.00
14273;BME280;7220;49.450;11.052;2023-10-31T04:44:32;96681.88;;;11.94;100.00
14273;BME280;7220;49.450;11.052;2023-10-31T04:48:33;96695.75;;;11.76;100.00
14273;BME280;7220;49.450;11.052;2023-10-31T04:52:33;96689.78;;;11.84;100.00
14273;BME280;7220;49.450;11.052;2023-10-31T04:56:33;96704.78;;;11.85;100.00
14273;BME280;7220;49.450;11.052;2023-10-31T05:00:34;96696.72;;;11.75;100.00
14273;BME280;7220;49.450;11.052;2023-10-31T05:04:38;96711.44;;;11.79;100.00
14273;BME280;7220;49.450;11.052;2023-10-31T05:08:38;96690.47;;;11.65;100.00
14273;BME280;7220;49.450;11.052;2023-10-31T05:12:38;96720.41;;;11.78;100.00
14273;BME280;7220;49.450;11.052;2023-10-31T05:16:42;96733.50;;;11.70;100.00
14273;BME280;7220;49.450;11.052;2023-10-31T05:20:43;96718.16;;;11.62;100.00
14273;BME280;7220;49.450;11.052;2023-10-31T05:24:43;96717.78;;;11.67;100.00
14273;BME280;7220;49.450;11.052;2023-10-31T05:28:43;96728.69;;;11.64;100.00
14273;BME280;7220;49.450;11.052;2023-10-31T05:32:44;96716.75;;;11.47;100.00
14273;BME280;7220;49.450;11.052;2023-10-31T05:36:44;96727.75;;;11.54;100.00
14273;BME280;7220;49.450;11.052;2023-10-31T05:40:44;96736.34;;;11.46;100.00
14273;BME280;7220;49.450;11.052;2023-10-31T05:44:45;96721.94;;;11.48;100.00
14273;BME280;7220;49.450;11.052;2023-10-31T05:48:46;96735.25;;;11.48;100.00
14273;BME280;7220;49.450;11.052;2023-10-31T05:52:46;96724.88;;;11.45;100.00
14273;BME280;7220;49.450;11.052;2023-10-31T05:56:47;96736.13;;;11.49;100.00
14273;BME280;7220;49.450;11.052;2023-10-31T06:00:48;96748.66;;;11.58;100.00
14273;BME280;7220;49.450;11.052;2023-10-31T06:04:48;96758.00;;;11.52;100.00
14273;BME280;7220;49.450;11.052;2023-10-31T06:08:48;96765.84;;;11.54;100.00
14273;BME280;7220;49.450;11.052;2023-10-31T06:12:49;96771.53;;;11.49;100.00
14273;BME280;7220;49.450;11.052;2023-10-31T06:16:49;96764.03;;;11.43;100.00
14273;BME280;7220;49.450;11.052;2023-10-31T06:20:49;96771.66;;;11.48;99.71
14273;BME280;7220;49.450;11.052;2023-10-31T06:24:50;96762.25;;;11.32;100.00
14273;BME280;7220;49.450;11.052;2023-10-31T06:28:50;96802.97;;;11.44;100.00
14273;BME280;7220;49.450;11.052;2023-10-31T06:32:52;96813.97;;;11.51;98.78
14273;BME280;7220;49.450;11.052;2023-10-31T06:36:52;96801.03;;;11.46;99.46
14273;BME280;7220;49.450;11.052;2023-10-31T06:40:53;96802.94;;;11.56;100.00
14273;BME280;7220;49.450;11.052;2023-10-31T06:44:53;96819.78;;;11.56;99.13
14273;BME280;7220;49.450;11.052;2023-10-31T06:48:53;96831.03;;;11.60;99.29
14273;BME280;7220;49.450;11.052;2023-10-31T06:52:54;96837.81;;;11.52;99.07
14273;BME280;7220;49.450;11.052;2023-10-31T06:56:54;96835.34;;;11.72;99.31
14273;BME280;7220;49.450;11.052;2023-10-31T07:00:54;96853.00;;;11.73;98.40
14273;BME280;7220;49.450;11.052;2023-10-31T07:04:58;96848.06;;;11.68;98.21
14273;BME280;7220;49.450;11.052;2023-10-31T07:08:58;96860.75;;;11.76;98.41
14273;BME280;7220;49.450;11.052;2023-10-31T07:13:00;96875.50;;;11.80;97.83
14273;BME280;7220;49.450;11.052;2023-10-31T07:17:01;96879.84;;;11.70;97.18
14273;BME280;7220;49.450;11.052;2023-10-31T07:21:01;96896.09;;;11.67;96.61
14273;BME280;7220;49.450;11.052;2023-10-31T07:25:01;96886.50;;;11.76;95.91
14273;BME280;7220;49.450;11.052;2023-10-31T07:29:03;96879.75;;;11.60;96.50
14273;BME280;7220;49.450;11.052;2023-10-31T07:33:03;96907.31;;;11.82;96.09
14273;BME280;7220;49.450;11.052;2023-10-31T07:37:04;96908.78;;;11.86;94.63
14273;BME280;7220;49.450;11.052;2023-10-31T07:41:04;96892.94;;;11.84;95.23
14273;BME280;7220;49.450;11.052;2023-10-31T07:45:05;96901.66;;;11.98;95.03
14273;BME280;7220;49.450;11.052;2023-10-31T07:49:05;96916.41;;;11.91;95.41
14273;BME280;7220;49.450;11.052;2023-10-31T07:53:06;96914.84;;;11.99;94.42
14273;BME280;7220;49.450;11.052;2023-10-31T07:57:07;96917.13;;;12.04;93.90
14273;BME280;7220;49.450;11.052;2023-10-31T08:01:07;96926.81;;;12.05;94.09
14273;BME280;7220;49.450;11.052;2023-10-31T08:05:10;96924.03;;;12.07;93.26
14273;BME280;7220;49.450;11.052;2023-10-31T08:09:11;96942.66;;;11.95;93.19
14273;BME280;7220;49.450;11.052;2023-10-31T08:13:11;96946.19;;;12.07;93.05
14273;BME280;7220;49.450;11.052;2023-10-31T08:17:12;96941.19;;;12.14;92.29
14273;BME280;7220;49.450;11.052;2023-10-31T08:21:12;96946.41;;;12.15;92.50
14273;BME280;7220;49.450;11.052;2023-10-31T08:25:13;96937.94;;;12.10;91.51
14273;BME280;7220;49.450;11.052;2023-10-31T08:29:13;96951.84;;;12.25;90.87
14273;BME280;7220;49.450;11.052;2023-10-31T08:33:14;96963.09;;;12.29;90.04
14273;BME280;7220;49.450;11.052;2023-10-31T08:37:14;96958.50;;;12.20;90.97
14273;BME280;7220;49.450;11.052;2023-10-31T08:41:14;96967.97;;;12.24;91.21
14273;BME280;7220;49.450;11.052;2023-10-31T08:45:20;96965.06;;;12.15;90.79
14273;BME280;7220;49.450;11.052;2023-10-31T08:49:20;96957.06;;;12.15;90.61
14273;BME280;7220;49.450;11.052;2023-10-31T08:53:21;96971.00;;;12.19;90.68
14273;BME280;7220;49.450;11.052;2023-10-31T08:57:22;96970.34;;;12.27;90.45
14273;BME280;7220;49.450;11.052;2023-10-31T09:01:22;96951.00;;;12.25;90.01
14273;BME280;7220;49.450;11.052;2023-10-31T09:05:22;96960.19;;;12.21;90.83
14273;BME280;7220;49.450;11.052;2023-10-31T09:09:23;96962.25;;;12.28;90.11
14273;BME280;7220;49.450;11.052;2023-10-31T09:13:23;96945.69;;;12.25;90.44
14273;BME280;7220;49.450;11.052;2023-10-31T09:17:23;96956.44;;;12.23;90.74
14273;BME280;7220;49.450;11.052;2023-10-31T09:21:24;96957.06;;;12.15;91.81
14273;BME280;7220;49.450;11.052;2023-10-31T09:25:24;96972.56;;;12.22;92.98
14273;BME280;7220;49.450;11.052;2023-10-31T09:29:24;96972.22;;;12.04;94.63
14273;BME280;7220;49.450;11.052;2023-10-31T09:33:25;96971.81;;;12.20;95.54
14273;BME280;7220;49.450;11.052;2023-10-31T09:37:25;96957.06;;;12.15;96.97
14273;BME280;7220;49.450;11.052;2023-10-31T09:41:26;96959.22;;;12.33;96.25
14273;BME280;7220;49.450;11.052;2023-10-31T09:45:26;96973.00;;;12.38;96.66
14273;BME280;7220;49.450;11.052;2023-10-31T09:49:27;96968.44;;;12.29;96.93
14273;BME280;7220;49.450;11.052;2023-10-31T09:53:29;96985.38;;;12.39;96.21
14273;BME280;7220;49.450;11.052;2023-10-31T09:57:31;96991.16;;;12.56;95.45
14273;BME280;7220;49.450;11.052;2023-10-31T10:01:32;97002.19;;;12.51;95.49
14273;BME280;7220;49.450;11.052;2023-10-31T10:05:33;96982.94;;;12.36;95.46
14273;BME280;7220;49.450;11.052;2023-10-31T10:09:35;97007.66;;;12.50;95.72
14273;BME280;7220;49.450;11.052;2023-10-31T10:13:35;97004.47;;;12.44;95.55
14273;BME280;7220;49.450;11.052;2023-10-31T10:17:35;97008.50;;;12.27;96.15
14273;BME280;7220;49.450;11.052;2023-10-31T10:21:53;97029.19;;;12.46;95.63
14273;BME280;7220;49.450;11.052;2023-10-31T10:25:56;97042.28;;;12.38;97.04
14273;BME280;7220;49.450;11.052;2023-10-31T10:29:56;97027.03;;;12.40;95.75
14273;BME280;7220;49.450;11.052;2023-10-31T10:33:57;97020.38;;;12.35;96.17
14273;BME280;7220;49.450;11.052;2023-10-31T10:37:59;97040.94;;;12.44;96.16
14273;BME280;7220;49.450;11.052;2023-10-31T10:42:01;97027.59;;;12.55;95.82
14273;BME280;7220;49.450;11.052;2023-10-31T10:46:07;97032.47;;;12.50;95.80
14273;BME280;7220;49.450;11.052;2023-10-31T10:50:12;97031.34;;;12.64;94.32
14273;BME280;7220;49.450;11.052;2023-10-31T10:54:26;97045.38;;;12.66;93.11
14273;BME280;7220;49.450;11.052;2023-10-31T10:58:34;97043.94;;;12.73;92.31
14273;BME280;7220;49.450;11.052;2023-10-31T11:02:37;97045.88;;;12.71;90.86
14273;BME280;7220;49.450;11.052;2023-10-31T11:06:38;97051.06;;;12.73;91.18
14273;BME280;7220;49.450;11.052;2023-10-31T11:10:39;97055.81;;;12.69;89.95
14273;BME280;7220;49.450;11.052;2023-10-31T11:14:40;97057.97;;;12.75;89.75
14273;BME280;7220;49.450;11.052;2023-10-31T11:18:41;97047.81;;;12.81;88.43
14273;BME280;7220;49.450;11.052;2023-10-31T11:22:44;97052.34;;;12.90;88.53
14273;BME280;7220;49.450;11.052;2023-10-31T11:26:52;97069.91;;;13.04;87.28
14273;BME280;7220;49.450;11.052;2023-10-31T11:30:53;97069.91;;;13.04;86.82
14273;BME280;7220;49.450;11.052;2023-10-31T11:34:59;97058.34;;;13.15;86.83
14273;BME280;7220;49.450;11.052;2023-10-31T11:39:11;97048.78;;;13.12;85.55
14273;BME280;7220;49.450;11.052;2023-10-31T11:43:13;97053.59;;;13.18;85.46
14273;BME280;7220;49.450;11.052;2023-10-31T11:47:15;97057.50;;;13.14;85.50
14273;BME280;7220;49.450;11.052;2023-10-31T11:51:15;97065.00;;;13.20;84.08
14273;BME280;7220;49.450;11.052;2023-10-31T11:55:16;97060.78;;;13.18;83.50
14273;BME280;7220;49.450;11.052;2023-10-31T11:59:16;97055.44;;;13.18;84.24
14273;BME280;7220;49.450;11.052;2023-10-31T12:03:18;97057.81;;;13.32;84.64
14273;BME280;7220;49.450;11.052;2023-10-31T12:07:19;97070.91;;;13.35;84.01
14273;BME280;7220;49.450;11.052;2023-10-31T12:11:22;97058.91;;;13.30;84.70
14273;BME280;7220;49.450;11.052;2023-10-31T12:15:23;97089.75;;;13.11;86.30
14273;BME280;7220;49.450;11.052;2023-10-31T12:19:23;97080.25;;;13.30;86.39
14273;BME280;7220;49.450;11.052;2023-10-31T12:23:23;97085.50;;;13.20;86.78
14273;BME280;7220;49.450;11.052;2023-10-31T12:27:24;97091.16;;;13.26;86.43
14273;BME280;7220;49.450;11.052;2023-10-31T12:31:24;97070.03;;;13.14;85.82
14273;BME280;7220;49.450;11.052;2023-10-31T12:35:26;97074.09;;;13.29;85.90
14273;BME280;7220;49.450;11.052;2023-10-31T12:39:27;97091.28;;;13.36;84.78
14273;BME280;7220;49.450;11.052;2023-10-31T12:43:28;97076.63;;;13.31;84.39
14273;BME280;7220;49.450;11.052;2023-10-31T12:47:29;97076.19;;;13.47;83.93
14273;BME280;7220;49.450;11.052;2023-10-31T12:51:29;97072.06;;;13.54;82.71
14273;BME280;7220;49.450;11.052;2023-10-31T12:55:31;97058.66;;;13.65;82.06
14273;BME280;7220;49.450;11.052;2023-10-31T12:59:32;97059.50;;;13.66;82.03
14273;BME280;7220;49.450;11.052;2023-10-31T13:03:48;97051.31;;;13.57;79.95
14273;BME280;7220;49.450;11.052;2023-10-31T13:07:49;97069.31;;;13.65;79.41
14273;BME280;7220;49.450;11.052;2023-10-31T13:11:49;97061.13;;;13.57;79.31
14273;BME280;7220;49.450;11.052;2023-10-31T13:15:50;97061.13;;;13.57;77.93
14273;BME280;7220;49.450;11.052;2023-10-31T13:19:51;97068.41;;;13.55;77.47
14273;BME280;7220;49.450;11.052;2023-10-31T13:23:51;97087.47;;;13.50;74.92
14273;BME280;7220;49.450;11.052;2023-10-31T13:27:51;97058.97;;;13.72;73.33
14273;BME280;7220;49.450;11.052;2023-10-31T13:31:53;97078.13;;;13.77;72.58
14273;BME280;7220;49.450;11.052;2023-10-31T13:35:53;97084.25;;;13.89;72.22
14273;BME280;7220;49.450;11.052;2023-10-31T13:39:54;97092.13;;;13.91;71.69
14273;BME280;7220;49.450;11.052;2023-10-31T13:43:54;97096.47;;;13.92;71.61
14273;BME280;7220;49.450;11.052;2023-10-31T13:47:54;97117.94;;;14.01;71.25
14273;BME280;7220;49.450;11.052;2023-10-31T13:51:55;97110.63;;;14.03;71.36
14273;BME280;7220;49.450;11.052;2023-10-31T13:55:55;97114.59;;;14.09;70.62
14273;BME280;7220;49.450;11.052;2023-10-31T13:59:55;97120.66;;;14.32;70.81
14273;BME280;7220;49.450;11.052;2023-10-31T14:03:56;97122.16;;;14.56;70.55
14273;BME280;7220;49.450;11.052;2023-10-31T14:07:56;97112.28;;;14.78;70.02
14273;BME280;7220;49.450;11.052;2023-10-31T14:11:57;97120.88;;;14.81;69.62
14273;BME280;7220;49.450;11.052;2023-10-31T14:15:57;97127.09;;;14.92;68.68
14273;BME280;7220;49.450;11.052;2023-10-31T14:19:58;97141.78;;;14.97;68.87
14273;BME280;7220;49.450;11.052;2023-10-31T14:23:58;97157.25;;;14.94;69.11
14273;BME280;7220;49.450;11.052;2023-10-31T14:27:58;97136.66;;;14.85;67.79
14273;BME280;7220;49.450;11.052;2023-10-31T14:32:06;97183.34;;;14.71;66.80
14273;BME280;7220;49.450;11.052;2023-10-31T14:36:07;97176.28;;;14.70;65.93
14273;BME280;7220;49.450;11.052;2023-10-31T14:40:10;97183.25;;;14.61;68.68
14273;BME280;7220;49.450;11.052;2023-10-31T14:44:11;97192.22;;;14.50;70.25
14273;BME280;7220;49.450;11.052;2023-10-31T14:48:11;97202.91;;;14.50;70.88
14273;BME280;7220;49.450;11.052;2023-10-31T14:52:11;97202.09;;;14.38;71.76
14273;BME280;7220;49.450;11.052;2023-10-31T14:56:12;97208.63;;;14.24;73.11
14273;BME280;7220;49.450;11.052;2023-10-31T15:00:13;97208.88;;;14.21;73.75
14273;BME280;7220;49.450;11.052;2023-10-31T15:04:14;97213.88;;;14.14;74.54
14273;BME280;7220;49.450;11.052;2023-10-31T15:08:16;97203.66;;;13.98;76.32
14273;BME280;7220;49.450;11.052;2023-10-31T15:12:16;97215.09;;;13.89;76.65
14273;BME280;7220;49.450;11.052;2023-10-31T15:16:17;97222.53;;;13.74;77.98
14273;BME280;7220;49.450;11.052;2023-10-31T15:20:18;97220.97;;;13.71;78.37
14273;BME280;7220;49.450;11.052;2023-10-31T15:24:18;97232.69;;;13.59;79.40
14273;BME280;7220;49.450;11.052;2023-10-31T15:28:18;97240.69;;;13.48;80.41
14273;BME280;7220;49.450;11.052;2023-10-31T15:32:19;97240.47;;;13.51;80.36
14273;BME280;7220;49.450;11.052;2023-10-31T15:36:19;97246.16;;;13.46;80.69
14273;BME280;7220;49.450;11.052;2023-10-31T15:40:20;97247.66;;;13.39;81.41
14273;BME280;7220;49.450;11.052;2023-10-31T15:44:20;97253.09;;;13.37;81.90
14273;BME280;7220;49.450;11.052;2023-10-31T15:48:20;97249.56;;;13.25;82.08
14273;BME280;7220;49.450;11.052;2023-10-31T15:52:21;97267.16;;;13.17;83.38
14273;BME280;7220;49.450;11.052;2023-10-31T15:56:22;97277.44;;;13.10;85.02
14273;BME280;7220;49.450;11.052;2023-10-31T16:00:22;97284.75;;;13.08;84.91
14273;BME280;7220;49.450;11.052;2023-10-31T16:04:22;97259.72;;;12.86;85.48
14273;BME280;7220;49.450;11.052;2023-10-31T16:08:23;97278.78;;;12.82;86.26
14273;BME280;7220;49.450;11.052;2023-10-31T16:12:24;97267.75;;;12.75;87.65
14273;BME280;7220;49.450;11.052;2023-10-31T16:16:24;97288.19;;;12.74;87.79
14273;BME280;7220;49.450;11.052;2023-10-31T16:20:24;97300.31;;;12.67;89.00
14273;BME280;7220;49.450;11.052;2023-10-31T16:24:25;97301.75;;;12.60;88.50
14273;BME280;7220;49.450;11.052;2023-10-31T16:28:25;97305.00;;;12.52;89.36
14273;BME280;7220;49.450;11.052;2023-10-31T16:32:28;97314.31;;;12.46;90.41
14273;BME280;7220;49.450;11.052;2023-10-31T16:36:28;97330.31;;;12.46;90.04
14273;BME280;7220;49.450;11.052;2023-10-31T16:40:29;97322.25;;;12.35;90.53
14273;BME280;7220;49.450;11.052;2023-10-31T16:44:29;97327.59;;;12.35;90.70
14273;BME280;7220;49.450;11.052;2023-10-31T16:48:29;97339.66;;;12.28;90.57
14273;BME280;7220;49.450;11.052;2023-10-31T16:52:30;97340.75;;;12.25;91.50
14273;BME280;7220;49.450;11.052;2023-10-31T16:56:30;97343.53;;;12.24;91.98
14273;BME280;7220;49.450;11.052;2023-10-31T17:00:30;97344.63;;;12.21;91.33
14273;BME280;7220;49.450;11.052;2023-10-31T17:04:31;97326.75;;;12.10;92.43
14273;BME280;7220;49.450;11.052;2023-10-31T17:08:34;97352.94;;;12.17;92.90
14273;BME280;7220;49.450;11.052;2023-10-31T17:12:35;97359.22;;;12.15;92.70
14273;BME280;7220;49.450;11.052;2023-10-31T17:16:36;97356.78;;;12.12;92.54
14273;BME280;7220;49.450;11.052;2023-10-31T17:20:36;97365.97;;;12.08;93.33
14273;BME280;7220;49.450;11.052;2023-10-31T17:24:37;97384.09;;;12.03;93.24
14273;BME280;7220;49.450;11.052;2023-10-31T17:28:38;97392.19;;;12.02;94.67
14273;BME280;7220;49.450;11.052;2023-10-31T17:32:38;97393.28;;;11.99;94.66
14273;BME280;7220;49.450;11.052;2023-10-31T17:36:39;97395.19;;;11.97;94.56
14273;BME280;7220;49.450;11.052;2023-10-31T17:40:40;97400.50;;;11.97;94.56
14273;BME280;7220;49.450;11.052;2023-10-31T17:44:40;97406.34;;;12.02;94.82
14273;BME280;7220;49.450;11.052;2023-10-31T17:48:40;97408.69;;;11.94;95.67
14273;BME280;7220;49.450;11.052;2023-10-31T17:52:41;97408.16;;;11.89;95.72
14273;BME280;7220;49.450;11.052;2023-10-31T17:56:41;97426.34;;;11.95;96.48
14273;BME280;7220;49.450;11.052;2023-10-31T18:00:42;97413.72;;;11.86;96.41
14273;BME280;7220;49.450;11.052;2023-10-31T18:04:42;97425.97;;;11.88;96.25
14273;BME280;7220;49.450;11.052;2023-10-31T18:08:45;97422.56;;;11.73;97.13
14273;BME280;7220;49.450;11.052;2023-10-31T18:12:46;97432.06;;;11.77;97.20
14273;BME280;7220;49.450;11.052;2023-10-31T18:16:48;97459.41;;;11.79;98.19
14273;BME280;7220;49.450;11.052;2023-10-31T18:20:49;97462.94;;;11.80;96.96
14273;BME280;7220;49.450;11.052;2023-10-31T18:24:51;97464.00;;;11.77;98.43
14273;BME280;7220;49.450;11.052;2023-10-31T18:28:51;97465.91;;;11.75;98.02
14273;BME280;7220;49.450;11.052;2023-10-31T18:32:52;97467.63;;;11.76;98.72
14273;BME280;7220;49.450;11.052;2023-10-31T18:36:52;97485.06;;;11.80;99.15
14273;BME280;7220;49.450;11.052;2023-10-31T18:40:52;97484.31;;;11.78;98.83
14273;BME280;7220;49.450;11.052;2023-10-31T18:44:53;97470.81;;;11.68;99.19
14273;BME280;7220;49.450;11.052;2023-10-31T18:48:53;97486.97;;;11.78;99.11
14273;BME280;7220;49.450;11.052;2023-10-31T18:52:53;97467.81;;;11.73;99.03
14273;BME280;7220;49.450;11.052;2023-10-31T18:56:54;97476.56;;;11.75;98.53
14273;BME280;7220;49.450;11.052;2023-10-31T19:00:58;97472.06;;;11.63;100.00
14273;BME280;7220;49.450;11.052;2023-10-31T19:04:58;97469.66;;;11.60;99.69
14273;BME280;7220;49.450;11.052;2023-10-31T19:08:58;97464.00;;;11.51;100.00
14273;BME280;7220;49.450;11.052;2023-10-31T19:12:59;97476.75;;;11.46;100.00
14273;BME280;7220;49.450;11.052;2023-10-31T19:16:59;97482.63;;;11.51;100.00
14273;BME280;7220;49.450;11.052;2023-10-31T19:21:00;97492.53;;;11.49;100.00
14273;BME280;7220;49.450;11.052;2023-10-31T19:25:00;97477.63;;;11.34;100.00
14273;BME280;7220;49.450;11.052;2023-10-31T19:29:00;97505.31;;;11.44;100.00
14273;BME280;7220;49.450;11.052;2023-10-31T19:33:01;97508.19;;;11.54;100.00
14273;BME280;7220;49.450;11.052;2023-10-31T19:37:01;97507.22;;;11.42;100.00
14273;BME280;7220;49.450;11.052;2023-10-31T19:41:02;97520.66;;;11.54;100.00
14273;BME280;7220;49.450;11.052;2023-10-31T19:45:03;97517.22;;;11.51;100.00
14273;BME280;7220;49.450;11.052;2023-10-31T19:49:03;97524.25;;;11.52;100.00
14273;BME280;7220;49.450;11.052;2023-10-31T19:53:03;97517.75;;;11.57;100.00
14273;BME280;7220;49.450;11.052;2023-10-31T19:57:04;97519.47;;;11.58;100.00
14273;BME280;7220;49.450;11.052;2023-10-31T20:01:04;97527.25;;;11.61;100.00
14273;BME280;7220;49.450;11.052;2023-10-31T20:05:05;97516.78;;;11.58;100.00
14273;BME280;7220;49.450;11.052;2023-10-31T20:09:05;97517.88;;;11.55;100.00
14273;BME280;7220;49.450;11.052;2023-10-31T20:13:06;97530.94;;;11.58;100.00
14273;BME280;7220;49.450;11.052;2023-10-31T20:17:06;97537.66;;;11.64;100.00
14273;BME280;7220;49.450;11.052;2023-10-31T20:21:06;97522.53;;;11.51;100.00
14273;BME280;7220;49.450;11.052;2023-10-31T20:25:08;97536.19;;;11.60;100.00
14273;BME280;7220;49.450;11.052;2023-10-31T20:29:08;97546.09;;;11.71;100.00
14273;BME280;7220;49.450;11.052;2023-10-31T20:33:09;97549.50;;;11.73;100.00
14273;BME280;7220;49.450;11.052;2023-10-31T20:37:10;97542.16;;;11.76;100.00
14273;BME280;7220;49.450;11.052;2023-10-31T20:41:10;97554.84;;;11.86;100.00
14273;BME280;7220;49.450;11.052;2023-10-31T20:45:10;97553.44;;;11.80;100.00
14273;BME280;7220;49.450;11.052;2023-10-31T20:49:11;97550.03;;;11.78;100.00
14273;BME280;7220;49.450;11.052;2023-10-31T20:53:12;97569.94;;;11.72;100.00
14273;BME280;7220;49.450;11.052;2023-10-31T20:57:12;97552.69;;;11.78;100.00
14273;BME280;7220;49.450;11.052;2023-10-31T21:01:12;97571.84;;;11.83;100.00
14273;BME280;7220;49.450;11.052;2023-10-31T21:05:14;97566.44;;;11.84;100.00
14273;BME280;7220;49.450;11.052;2023-10-31T21:09:14;97554.06;;;11.83;100.00